sensor_id;sensor_type;location;lat;lon;timestamp;P1;durP1;ratioP1;P2;durP2;ratioP2
49488;SDS011;35382;51.484;11.476;2022-08-27T00:00:44;48.60;;;45.60;;
49488;SDS011;35382;51.484;11.476;2022-08-27T00:02:25;53.80;;;49.65;;
49488;SDS011;35382;51.484;11.476;2022-08-27T00:04:06;50.47;;;47.10;;
49488;SDS011;35382;51.484;11.476;2022-08-27T00:05:47;52.60;;;49.28;;
49488;SDS011;35382;51.484;11.476;2022-08-27T00:07:28;50.78;;;47.10;;
49488;SDS011;35382;51.484;11.476;2022-08-27T00:09:09;50.83;;;46.95;;
49488;SDS011;35382;51.484;11.476;2022-08-27T00:10:50;51.15;;;47.58;;
49488;SDS011;35382;51.484;11.476;2022-08-27T00:12:31;49.85;;;45.92;;
49488;SDS011;35382;51.484;11.476;2022-08-27T00:14:12;50.75;;;47.08;;
49488;SDS011;35382;51.484;11.476;2022-08-27T00:15:53;55.30;;;51.25;;
49488;SDS011;35382;51.484;11.476;2022-08-27T00:17:34;59.03;;;54.55;;
49488;SDS011;35382;51.484;11.476;2022-08-27T00:19:15;58.85;;;54.58;;
49488;SDS011;35382;51.484;11.476;2022-08-27T00:20:57;63.05;;;59.08;;
49488;SDS011;35382;51.484;11.476;2022-08-27T00:22:38;65.43;;;61.35;;
49488;SDS011;35382;51.484;11.476;2022-08-27T00:24:18;68.50;;;64.28;;
49488;SDS011;35382;51.484;11.476;2022-08-27T00:25:59;69.32;;;65.05;;
49488;SDS011;35382;51.484;11.476;2022-08-27T00:27:40;69.22;;;64.88;;
49488;SDS011;35382;51.484;11.476;2022-08-27T00:29:22;65.80;;;61.38;;
49488;SDS011;35382;51.484;11.476;2022-08-27T00:31:05;62.00;;;58.03;;
49488;SDS011;35382;51.484;11.476;2022-08-27T00:32:47;64.07;;;60.22;;
49488;SDS011;35382;51.484;11.476;2022-08-27T00:34:28;61.55;;;57.45;;
49488;SDS011;35382;51.484;11.476;2022-08-27T00:36:09;64.13;;;59.90;;
49488;SDS011;35382;51.484;11.476;2022-08-27T00:37:51;63.55;;;59.67;;
49488;SDS011;35382;51.484;11.476;2022-08-27T00:39:33;62.97;;;58.38;;
49488;SDS011;35382;51.484;11.476;2022-08-27T00:41:16;62.05;;;57.92;;
49488;SDS011;35382;51.484;11.476;2022-08-27T00:42:59;64.60;;;60.50;;
49488;SDS011;35382;51.484;11.476;2022-08-27T00:44:43;63.45;;;59.45;;
49488;SDS011;35382;51.484;11.476;2022-08-27T00:46:35;59.92;;;55.70;;
49488;SDS011;35382;51.484;11.476;2022-08-27T00:48:18;61.17;;;57.00;;
49488;SDS011;35382;51.484;11.476;2022-08-27T00:50:02;59.35;;;55.50;;
49488;SDS011;35382;51.484;11.476;2022-08-27T00:51:49;56.80;;;52.95;;
49488;SDS011;35382;51.484;11.476;2022-08-27T00:53:35;60.95;;;56.53;;
49488;SDS011;35382;51.484;11.476;2022-08-27T00:55:17;58.78;;;54.95;;
49488;SDS011;35382;51.484;11.476;2022-08-27T00:57:00;61.70;;;57.55;;
49488;SDS011;35382;51.484;11.476;2022-08-27T00:58:47;59.05;;;54.28;;
49488;SDS011;35382;51.484;11.476;2022-08-27T01:00:31;61.03;;;57.00;;
49488;SDS011;35382;51.484;11.476;2022-08-27T01:02:12;60.03;;;55.88;;
49488;SDS011;35382;51.484;11.476;2022-08-27T01:04:01;62.07;;;58.13;;
49488;SDS011;35382;51.484;11.476;2022-08-27T01:05:46;67.82;;;63.53;;
49488;SDS011;35382;51.484;11.476;2022-08-27T01:07:28;60.50;;;56.50;;
49488;SDS011;35382;51.484;11.476;2022-08-27T01:09:13;60.25;;;56.15;;
49488;SDS011;35382;51.484;11.476;2022-08-27T01:10:56;60.85;;;56.45;;
49488;SDS011;35382;51.484;11.476;2022-08-27T01:12:38;61.78;;;57.67;;
49488;SDS011;35382;51.484;11.476;2022-08-27T01:14:19;59.45;;;55.35;;
49488;SDS011;35382;51.484;11.476;2022-08-27T01:16:00;55.13;;;51.30;;
49488;SDS011;35382;51.484;11.476;2022-08-27T01:17:41;53.78;;;50.08;;
49488;SDS011;35382;51.484;11.476;2022-08-27T01:19:34;59.58;;;55.13;;
49488;SDS011;35382;51.484;11.476;2022-08-27T01:21:34;56.88;;;52.80;;
49488;SDS011;35382;51.484;11.476;2022-08-27T01:25:18;53.17;;;49.03;;
49488;SDS011;35382;51.484;11.476;2022-08-27T01:26:59;56.40;;;52.05;;
49488;SDS011;35382;51.484;11.476;2022-08-27T01:28:42;54.47;;;50.72;;
49488;SDS011;35382;51.484;11.476;2022-08-27T01:30:24;54.53;;;50.85;;
49488;SDS011;35382;51.484;11.476;2022-08-27T01:32:07;55.00;;;51.40;;
49488;SDS011;35382;51.484;11.476;2022-08-27T01:33:56;53.67;;;49.72;;
49488;SDS011;35382;51.484;11.476;2022-08-27T01:35:40;53.03;;;49.22;;
49488;SDS011;35382;51.484;11.476;2022-08-27T01:37:22;52.42;;;48.67;;
49488;SDS011;35382;51.484;11.476;2022-08-27T01:39:04;51.28;;;47.53;;
49488;SDS011;35382;51.484;11.476;2022-08-27T01:40:46;51.78;;;47.92;;
49488;SDS011;35382;51.484;11.476;2022-08-27T01:42:28;57.03;;;53.55;;
49488;SDS011;35382;51.484;11.476;2022-08-27T01:44:12;56.67;;;53.13;;
49488;SDS011;35382;51.484;11.476;2022-08-27T01:45:53;57.08;;;53.70;;
49488;SDS011;35382;51.484;11.476;2022-08-27T01:47:35;60.47;;;56.97;;
49488;SDS011;35382;51.484;11.476;2022-08-27T01:49:16;55.60;;;52.28;;
49488;SDS011;35382;51.484;11.476;2022-08-27T01:50:57;58.83;;;55.63;;
49488;SDS011;35382;51.484;11.476;2022-08-27T01:52:38;59.55;;;56.22;;
49488;SDS011;35382;51.484;11.476;2022-08-27T01:54:19;59.70;;;56.00;;
49488;SDS011;35382;51.484;11.476;2022-08-27T01:56:00;58.22;;;54.67;;
49488;SDS011;35382;51.484;11.476;2022-08-27T01:57:42;59.65;;;56.30;;
49488;SDS011;35382;51.484;11.476;2022-08-27T01:59:23;60.25;;;56.92;;
49488;SDS011;35382;51.484;11.476;2022-08-27T02:01:06;58.80;;;55.25;;
49488;SDS011;35382;51.484;11.476;2022-08-27T02:02:50;57.17;;;53.97;;
49488;SDS011;35382;51.484;11.476;2022-08-27T02:04:32;57.33;;;54.03;;
49488;SDS011;35382;51.484;11.476;2022-08-27T02:06:13;57.08;;;53.83;;
49488;SDS011;35382;51.484;11.476;2022-08-27T02:07:54;55.17;;;51.63;;
49488;SDS011;35382;51.484;11.476;2022-08-27T02:09:35;52.88;;;49.75;;
49488;SDS011;35382;51.484;11.476;2022-08-27T02:11:17;56.15;;;52.90;;
49488;SDS011;35382;51.484;11.476;2022-08-27T02:12:58;55.88;;;52.45;;
49488;SDS011;35382;51.484;11.476;2022-08-27T02:14:39;58.00;;;54.60;;
49488;SDS011;35382;51.484;11.476;2022-08-27T02:16:20;56.70;;;53.63;;
49488;SDS011;35382;51.484;11.476;2022-08-27T02:18:02;59.33;;;56.28;;
49488;SDS011;35382;51.484;11.476;2022-08-27T02:19:44;60.58;;;57.08;;
49488;SDS011;35382;51.484;11.476;2022-08-27T02:21:25;64.15;;;60.60;;
49488;SDS011;35382;51.484;11.476;2022-08-27T02:23:06;63.75;;;60.10;;
49488;SDS011;35382;51.484;11.476;2022-08-27T02:24:48;66.85;;;63.35;;
49488;SDS011;35382;51.484;11.476;2022-08-27T02:26:29;63.00;;;59.47;;
49488;SDS011;35382;51.484;11.476;2022-08-27T02:28:10;62.08;;;58.83;;
49488;SDS011;35382;51.484;11.476;2022-08-27T02:29:51;57.05;;;53.67;;
49488;SDS011;35382;51.484;11.476;2022-08-27T02:31:32;56.28;;;52.78;;
49488;SDS011;35382;51.484;11.476;2022-08-27T02:33:13;59.42;;;56.03;;
49488;SDS011;35382;51.484;11.476;2022-08-27T02:34:55;65.10;;;61.85;;
49488;SDS011;35382;51.484;11.476;2022-08-27T02:36:36;63.03;;;59.58;;
49488;SDS011;35382;51.484;11.476;2022-08-27T02:38:17;60.83;;;57.55;;
49488;SDS011;35382;51.484;11.476;2022-08-27T02:40:00;64.15;;;60.58;;
49488;SDS011;35382;51.484;11.476;2022-08-27T02:41:41;60.42;;;56.63;;
49488;SDS011;35382;51.484;11.476;2022-08-27T02:43:22;63.90;;;60.13;;
49488;SDS011;35382;51.484;11.476;2022-08-27T02:45:03;59.72;;;56.45;;
49488;SDS011;35382;51.484;11.476;2022-08-27T02:46:47;58.40;;;54.97;;
49488;SDS011;35382;51.484;11.476;2022-08-27T02:48:28;56.03;;;52.78;;
49488;SDS011;35382;51.484;11.476;2022-08-27T02:50:10;59.10;;;55.50;;
49488;SDS011;35382;51.484;11.476;2022-08-27T02:51:53;53.63;;;50.28;;
49488;SDS011;35382;51.484;11.476;2022-08-27T02:53:35;53.28;;;49.88;;
49488;SDS011;35382;51.484;11.476;2022-08-27T02:55:17;54.95;;;51.67;;
49488;SDS011;35382;51.484;11.476;2022-08-27T02:56:58;52.88;;;49.55;;
49488;SDS011;35382;51.484;11.476;2022-08-27T02:58:39;54.67;;;51.17;;
49488;SDS011;35382;51.484;11.476;2022-08-27T03:00:21;52.90;;;49.45;;
49488;SDS011;35382;51.484;11.476;2022-08-27T03:02:04;52.63;;;49.05;;
49488;SDS011;35382;51.484;11.476;2022-08-27T03:03:45;52.97;;;49.35;;
49488;SDS011;35382;51.484;11.476;2022-08-27T03:05:26;54.90;;;51.30;;
49488;SDS011;35382;51.484;11.476;2022-08-27T03:07:08;55.03;;;51.28;;
49488;SDS011;35382;51.484;11.476;2022-08-27T03:08:48;53.30;;;49.40;;
49488;SDS011;35382;51.484;11.476;2022-08-27T03:10:29;56.13;;;52.25;;
49488;SDS011;35382;51.484;11.476;2022-08-27T03:12:10;54.42;;;50.90;;
49488;SDS011;35382;51.484;11.476;2022-08-27T03:13:52;52.88;;;49.22;;
49488;SDS011;35382;51.484;11.476;2022-08-27T03:15:33;55.05;;;50.95;;
49488;SDS011;35382;51.484;11.476;2022-08-27T03:17:14;53.38;;;49.78;;
49488;SDS011;35382;51.484;11.476;2022-08-27T03:19:13;53.72;;;50.22;;
49488;SDS011;35382;51.484;11.476;2022-08-27T03:20:55;57.30;;;53.42;;
49488;SDS011;35382;51.484;11.476;2022-08-27T03:22:36;61.95;;;58.03;;
49488;SDS011;35382;51.484;11.476;2022-08-27T03:24:17;56.08;;;52.10;;
49488;SDS011;35382;51.484;11.476;2022-08-27T03:25:59;55.10;;;51.47;;
49488;SDS011;35382;51.484;11.476;2022-08-27T03:27:42;58.33;;;54.30;;
49488;SDS011;35382;51.484;11.476;2022-08-27T03:29:23;57.97;;;54.05;;
49488;SDS011;35382;51.484;11.476;2022-08-27T03:31:05;57.60;;;53.20;;
49488;SDS011;35382;51.484;11.476;2022-08-27T03:32:48;57.00;;;52.75;;
49488;SDS011;35382;51.484;11.476;2022-08-27T03:34:29;66.55;;;62.20;;
49488;SDS011;35382;51.484;11.476;2022-08-27T03:36:10;58.42;;;53.88;;
49488;SDS011;35382;51.484;11.476;2022-08-27T03:37:51;56.08;;;52.25;;
49488;SDS011;35382;51.484;11.476;2022-08-27T03:39:32;60.58;;;55.95;;
49488;SDS011;35382;51.484;11.476;2022-08-27T03:41:13;59.55;;;55.47;;
49488;SDS011;35382;51.484;11.476;2022-08-27T03:42:55;61.63;;;57.13;;
49488;SDS011;35382;51.484;11.476;2022-08-27T03:44:36;57.50;;;53.40;;
49488;SDS011;35382;51.484;11.476;2022-08-27T03:46:18;61.35;;;56.90;;
49488;SDS011;35382;51.484;11.476;2022-08-27T03:48:00;58.17;;;53.67;;
49488;SDS011;35382;51.484;11.476;2022-08-27T03:49:41;59.75;;;55.30;;
49488;SDS011;35382;51.484;11.476;2022-08-27T03:51:22;59.88;;;55.65;;
49488;SDS011;35382;51.484;11.476;2022-08-27T03:53:03;57.63;;;53.45;;
49488;SDS011;35382;51.484;11.476;2022-08-27T03:54:44;57.25;;;53.10;;
49488;SDS011;35382;51.484;11.476;2022-08-27T03:56:25;60.55;;;55.97;;
49488;SDS011;35382;51.484;11.476;2022-08-27T03:58:06;60.42;;;56.20;;
49488;SDS011;35382;51.484;11.476;2022-08-27T03:59:47;61.90;;;57.40;;
49488;SDS011;35382;51.484;11.476;2022-08-27T04:01:28;59.95;;;55.60;;
49488;SDS011;35382;51.484;11.476;2022-08-27T04:03:10;63.40;;;58.80;;
49488;SDS011;35382;51.484;11.476;2022-08-27T04:04:53;60.15;;;55.97;;
49488;SDS011;35382;51.484;11.476;2022-08-27T04:06:34;61.97;;;57.42;;
49488;SDS011;35382;51.484;11.476;2022-08-27T04:08:15;56.50;;;52.40;;
49488;SDS011;35382;51.484;11.476;2022-08-27T04:09:56;58.10;;;53.58;;
49488;SDS011;35382;51.484;11.476;2022-08-27T04:11:38;62.85;;;58.47;;
49488;SDS011;35382;51.484;11.476;2022-08-27T04:13:19;61.50;;;56.92;;
49488;SDS011;35382;51.484;11.476;2022-08-27T04:15:01;62.33;;;57.72;;
49488;SDS011;35382;51.484;11.476;2022-08-27T04:16:43;64.28;;;59.95;;
49488;SDS011;35382;51.484;11.476;2022-08-27T04:18:23;59.53;;;55.10;;
49488;SDS011;35382;51.484;11.476;2022-08-27T04:20:05;65.40;;;60.80;;
49488;SDS011;35382;51.484;11.476;2022-08-27T04:21:47;61.65;;;57.35;;
49488;SDS011;35382;51.484;11.476;2022-08-27T04:23:28;63.40;;;58.50;;
49488;SDS011;35382;51.484;11.476;2022-08-27T04:25:09;62.72;;;58.13;;
49488;SDS011;35382;51.484;11.476;2022-08-27T04:26:50;61.50;;;57.10;;
49488;SDS011;35382;51.484;11.476;2022-08-27T04:28:32;58.47;;;54.15;;
49488;SDS011;35382;51.484;11.476;2022-08-27T04:30:13;59.00;;;54.58;;
49488;SDS011;35382;51.484;11.476;2022-08-27T04:31:55;59.97;;;55.22;;
49488;SDS011;35382;51.484;11.476;2022-08-27T04:33:36;60.35;;;55.90;;
49488;SDS011;35382;51.484;11.476;2022-08-27T04:35:17;57.88;;;53.55;;
49488;SDS011;35382;51.484;11.476;2022-08-27T04:36:58;60.88;;;55.85;;
49488;SDS011;35382;51.484;11.476;2022-08-27T04:38:39;59.00;;;54.70;;
49488;SDS011;35382;51.484;11.476;2022-08-27T04:40:20;58.97;;;54.30;;
49488;SDS011;35382;51.484;11.476;2022-08-27T04:42:01;60.47;;;55.97;;
49488;SDS011;35382;51.484;11.476;2022-08-27T04:43:42;56.97;;;52.72;;
49488;SDS011;35382;51.484;11.476;2022-08-27T04:45:23;58.35;;;53.92;;
49488;SDS011;35382;51.484;11.476;2022-08-27T04:47:04;55.10;;;51.10;;
49488;SDS011;35382;51.484;11.476;2022-08-27T04:48:45;60.25;;;55.70;;
49488;SDS011;35382;51.484;11.476;2022-08-27T04:50:26;58.08;;;53.83;;
49488;SDS011;35382;51.484;11.476;2022-08-27T04:52:10;56.63;;;52.13;;
49488;SDS011;35382;51.484;11.476;2022-08-27T04:53:51;54.95;;;50.92;;
49488;SDS011;35382;51.484;11.476;2022-08-27T04:55:32;54.50;;;50.50;;
49488;SDS011;35382;51.484;11.476;2022-08-27T04:57:13;57.20;;;52.92;;
49488;SDS011;35382;51.484;11.476;2022-08-27T04:58:54;55.00;;;50.83;;
49488;SDS011;35382;51.484;11.476;2022-08-27T05:00:43;53.55;;;49.28;;
49488;SDS011;35382;51.484;11.476;2022-08-27T05:02:27;55.53;;;51.13;;
49488;SDS011;35382;51.484;11.476;2022-08-27T05:04:10;54.63;;;50.53;;
49488;SDS011;35382;51.484;11.476;2022-08-27T05:05:52;54.67;;;50.50;;
49488;SDS011;35382;51.484;11.476;2022-08-27T05:07:33;57.35;;;53.17;;
49488;SDS011;35382;51.484;11.476;2022-08-27T05:09:15;54.33;;;50.25;;
49488;SDS011;35382;51.484;11.476;2022-08-27T05:10:56;56.28;;;52.03;;
49488;SDS011;35382;51.484;11.476;2022-08-27T05:12:38;57.88;;;53.47;;
49488;SDS011;35382;51.484;11.476;2022-08-27T05:14:19;57.15;;;53.00;;
49488;SDS011;35382;51.484;11.476;2022-08-27T05:16:02;57.78;;;53.22;;
49488;SDS011;35382;51.484;11.476;2022-08-27T05:17:45;55.28;;;51.35;;
49488;SDS011;35382;51.484;11.476;2022-08-27T05:19:27;59.95;;;55.30;;
49488;SDS011;35382;51.484;11.476;2022-08-27T05:21:08;59.03;;;54.53;;
49488;SDS011;35382;51.484;11.476;2022-08-27T05:22:49;62.47;;;57.90;;
49488;SDS011;35382;51.484;11.476;2022-08-27T05:24:30;63.00;;;58.53;;
49488;SDS011;35382;51.484;11.476;2022-08-27T05:26:12;64.47;;;59.85;;
49488;SDS011;35382;51.484;11.476;2022-08-27T05:27:53;64.18;;;59.50;;
49488;SDS011;35382;51.484;11.476;2022-08-27T05:29:33;61.67;;;57.08;;
49488;SDS011;35382;51.484;11.476;2022-08-27T05:31:15;64.18;;;59.67;;
49488;SDS011;35382;51.484;11.476;2022-08-27T05:32:56;63.40;;;58.55;;
49488;SDS011;35382;51.484;11.476;2022-08-27T05:34:37;69.82;;;64.57;;
49488;SDS011;35382;51.484;11.476;2022-08-27T05:36:19;75.22;;;69.85;;
49488;SDS011;35382;51.484;11.476;2022-08-27T05:38:05;77.50;;;72.13;;
49488;SDS011;35382;51.484;11.476;2022-08-27T05:39:46;77.60;;;72.13;;
49488;SDS011;35382;51.484;11.476;2022-08-27T05:41:28;82.63;;;76.95;;
49488;SDS011;35382;51.484;11.476;2022-08-27T05:43:10;82.05;;;76.53;;
49488;SDS011;35382;51.484;11.476;2022-08-27T05:44:55;79.43;;;74.13;;
49488;SDS011;35382;51.484;11.476;2022-08-27T05:46:37;85.90;;;80.28;;
49488;SDS011;35382;51.484;11.476;2022-08-27T05:48:19;88.05;;;81.97;;
49488;SDS011;35382;51.484;11.476;2022-08-27T05:50:00;85.60;;;80.03;;
49488;SDS011;35382;51.484;11.476;2022-08-27T05:51:41;84.60;;;79.00;;
49488;SDS011;35382;51.484;11.476;2022-08-27T05:53:22;84.53;;;78.93;;
49488;SDS011;35382;51.484;11.476;2022-08-27T05:55:03;83.75;;;78.13;;
49488;SDS011;35382;51.484;11.476;2022-08-27T05:56:44;80.97;;;75.72;;
49488;SDS011;35382;51.484;11.476;2022-08-27T05:58:26;80.45;;;75.57;;
49488;SDS011;35382;51.484;11.476;2022-08-27T06:00:25;76.85;;;71.68;;
49488;SDS011;35382;51.484;11.476;2022-08-27T06:02:25;75.13;;;70.32;;
49488;SDS011;35382;51.484;11.476;2022-08-27T06:04:06;80.03;;;74.93;;
49488;SDS011;35382;51.484;11.476;2022-08-27T06:05:48;77.70;;;72.90;;
49488;SDS011;35382;51.484;11.476;2022-08-27T06:07:29;76.88;;;71.90;;
49488;SDS011;35382;51.484;11.476;2022-08-27T06:09:13;75.53;;;70.78;;
49488;SDS011;35382;51.484;11.476;2022-08-27T06:10:58;72.75;;;68.28;;
49488;SDS011;35382;51.484;11.476;2022-08-27T06:12:41;74.80;;;70.47;;
49488;SDS011;35382;51.484;11.476;2022-08-27T06:14:22;71.80;;;67.85;;
49488;SDS011;35382;51.484;11.476;2022-08-27T06:16:05;70.25;;;65.95;;
49488;SDS011;35382;51.484;11.476;2022-08-27T06:17:47;71.72;;;67.47;;
49488;SDS011;35382;51.484;11.476;2022-08-27T06:19:28;68.43;;;64.35;;
49488;SDS011;35382;51.484;11.476;2022-08-27T06:21:10;68.50;;;64.57;;
49488;SDS011;35382;51.484;11.476;2022-08-27T06:22:51;71.07;;;67.03;;
49488;SDS011;35382;51.484;11.476;2022-08-27T06:24:32;64.45;;;60.55;;
49488;SDS011;35382;51.484;11.476;2022-08-27T06:26:14;67.22;;;63.28;;
49488;SDS011;35382;51.484;11.476;2022-08-27T06:27:57;66.90;;;63.10;;
49488;SDS011;35382;51.484;11.476;2022-08-27T06:29:38;67.18;;;63.20;;
49488;SDS011;35382;51.484;11.476;2022-08-27T06:31:21;64.35;;;60.55;;
49488;SDS011;35382;51.484;11.476;2022-08-27T06:33:04;66.10;;;62.35;;
49488;SDS011;35382;51.484;11.476;2022-08-27T06:34:45;64.38;;;60.70;;
49488;SDS011;35382;51.484;11.476;2022-08-27T06:36:27;62.08;;;58.50;;
49488;SDS011;35382;51.484;11.476;2022-08-27T06:38:09;63.05;;;59.33;;
49488;SDS011;35382;51.484;11.476;2022-08-27T06:39:50;61.78;;;58.08;;
49488;SDS011;35382;51.484;11.476;2022-08-27T06:41:31;63.47;;;59.85;;
49488;SDS011;35382;51.484;11.476;2022-08-27T06:43:13;66.78;;;63.00;;
49488;SDS011;35382;51.484;11.476;2022-08-27T06:44:54;63.30;;;59.55;;
49488;SDS011;35382;51.484;11.476;2022-08-27T06:46:35;61.65;;;58.20;;
49488;SDS011;35382;51.484;11.476;2022-08-27T06:48:18;64.72;;;61.15;;
49488;SDS011;35382;51.484;11.476;2022-08-27T06:49:59;62.97;;;59.42;;
49488;SDS011;35382;51.484;11.476;2022-08-27T06:51:42;59.88;;;56.30;;
49488;SDS011;35382;51.484;11.476;2022-08-27T06:53:25;59.75;;;56.30;;
49488;SDS011;35382;51.484;11.476;2022-08-27T06:55:06;57.97;;;54.50;;
49488;SDS011;35382;51.484;11.476;2022-08-27T06:56:49;67.15;;;63.20;;
49488;SDS011;35382;51.484;11.476;2022-08-27T06:58:30;60.78;;;57.17;;
49488;SDS011;35382;51.484;11.476;2022-08-27T07:00:11;59.00;;;55.72;;
49488;SDS011;35382;51.484;11.476;2022-08-27T07:01:52;58.80;;;55.20;;
49488;SDS011;35382;51.484;11.476;2022-08-27T07:03:33;52.15;;;48.92;;
49488;SDS011;35382;51.484;11.476;2022-08-27T07:05:14;48.42;;;45.42;;
49488;SDS011;35382;51.484;11.476;2022-08-27T07:06:55;54.85;;;51.55;;
49488;SDS011;35382;51.484;11.476;2022-08-27T07:08:36;48.47;;;45.42;;
49488;SDS011;35382;51.484;11.476;2022-08-27T07:10:19;44.20;;;41.30;;
49488;SDS011;35382;51.484;11.476;2022-08-27T07:12:00;45.20;;;42.20;;
49488;SDS011;35382;51.484;11.476;2022-08-27T07:13:41;43.03;;;40.22;;
49488;SDS011;35382;51.484;11.476;2022-08-27T07:15:25;43.45;;;40.75;;
49488;SDS011;35382;51.484;11.476;2022-08-27T07:17:06;42.15;;;39.05;;
49488;SDS011;35382;51.484;11.476;2022-08-27T07:18:48;43.22;;;40.40;;
49488;SDS011;35382;51.484;11.476;2022-08-27T07:20:30;43.97;;;40.97;;
49488;SDS011;35382;51.484;11.476;2022-08-27T07:22:11;43.25;;;40.42;;
49488;SDS011;35382;51.484;11.476;2022-08-27T07:23:53;46.03;;;42.72;;
49488;SDS011;35382;51.484;11.476;2022-08-27T07:25:35;42.92;;;39.80;;
49488;SDS011;35382;51.484;11.476;2022-08-27T07:27:16;45.33;;;42.25;;
49488;SDS011;35382;51.484;11.476;2022-08-27T07:28:57;50.33;;;47.03;;
49488;SDS011;35382;51.484;11.476;2022-08-27T07:30:38;45.85;;;42.70;;
49488;SDS011;35382;51.484;11.476;2022-08-27T07:32:19;47.72;;;44.53;;
49488;SDS011;35382;51.484;11.476;2022-08-27T07:34:00;43.53;;;40.38;;
49488;SDS011;35382;51.484;11.476;2022-08-27T07:35:42;51.63;;;48.33;;
49488;SDS011;35382;51.484;11.476;2022-08-27T07:37:25;47.00;;;43.88;;
49488;SDS011;35382;51.484;11.476;2022-08-27T07:39:06;50.38;;;46.85;;
49488;SDS011;35382;51.484;11.476;2022-08-27T07:40:47;48.20;;;45.00;;
49488;SDS011;35382;51.484;11.476;2022-08-27T07:42:28;44.78;;;41.85;;
49488;SDS011;35382;51.484;11.476;2022-08-27T07:44:28;48.13;;;44.88;;
49488;SDS011;35382;51.484;11.476;2022-08-27T07:46:09;40.22;;;37.00;;
49488;SDS011;35382;51.484;11.476;2022-08-27T07:47:50;41.38;;;38.20;;
49488;SDS011;35382;51.484;11.476;2022-08-27T07:49:31;37.78;;;35.05;;
49488;SDS011;35382;51.484;11.476;2022-08-27T07:51:15;50.33;;;46.58;;
49488;SDS011;35382;51.484;11.476;2022-08-27T07:52:59;37.90;;;34.70;;
49488;SDS011;35382;51.484;11.476;2022-08-27T07:54:41;41.08;;;37.60;;
49488;SDS011;35382;51.484;11.476;2022-08-27T07:56:22;41.38;;;38.28;;
49488;SDS011;35382;51.484;11.476;2022-08-27T07:58:03;41.92;;;38.85;;
49488;SDS011;35382;51.484;11.476;2022-08-27T07:59:44;61.03;;;54.55;;
49488;SDS011;35382;51.484;11.476;2022-08-27T08:01:27;39.83;;;36.45;;
49488;SDS011;35382;51.484;11.476;2022-08-27T08:03:09;42.20;;;38.53;;
49488;SDS011;35382;51.484;11.476;2022-08-27T08:04:51;48.35;;;44.85;;
49488;SDS011;35382;51.484;11.476;2022-08-27T08:06:32;43.45;;;40.08;;
49488;SDS011;35382;51.484;11.476;2022-08-27T08:08:16;45.13;;;41.47;;
49488;SDS011;35382;51.484;11.476;2022-08-27T08:09:57;45.03;;;40.95;;
49488;SDS011;35382;51.484;11.476;2022-08-27T08:11:38;56.33;;;52.30;;
49488;SDS011;35382;51.484;11.476;2022-08-27T08:13:19;45.50;;;41.80;;
49488;SDS011;35382;51.484;11.476;2022-08-27T08:15:00;50.60;;;46.60;;
49488;SDS011;35382;51.484;11.476;2022-08-27T08:16:41;53.75;;;49.85;;
49488;SDS011;35382;51.484;11.476;2022-08-27T08:18:22;50.00;;;45.88;;
49488;SDS011;35382;51.484;11.476;2022-08-27T08:20:04;45.35;;;41.67;;
49488;SDS011;35382;51.484;11.476;2022-08-27T08:21:46;52.10;;;47.88;;
49488;SDS011;35382;51.484;11.476;2022-08-27T08:23:27;49.05;;;45.08;;
49488;SDS011;35382;51.484;11.476;2022-08-27T08:25:08;44.90;;;41.17;;
49488;SDS011;35382;51.484;11.476;2022-08-27T08:26:49;51.63;;;47.80;;
49488;SDS011;35382;51.484;11.476;2022-08-27T08:28:30;55.30;;;50.97;;
49488;SDS011;35382;51.484;11.476;2022-08-27T08:30:11;59.25;;;55.20;;
49488;SDS011;35382;51.484;11.476;2022-08-27T08:31:52;59.83;;;55.30;;
49488;SDS011;35382;51.484;11.476;2022-08-27T08:33:34;70.50;;;66.13;;
49488;SDS011;35382;51.484;11.476;2022-08-27T08:35:15;62.80;;;58.78;;
49488;SDS011;35382;51.484;11.476;2022-08-27T08:36:57;57.67;;;53.60;;
49488;SDS011;35382;51.484;11.476;2022-08-27T08:38:38;76.30;;;71.57;;
49488;SDS011;35382;51.484;11.476;2022-08-27T08:40:33;68.30;;;63.83;;
49488;SDS011;35382;51.484;11.476;2022-08-27T08:46:16;59.38;;;55.58;;
49488;SDS011;35382;51.484;11.476;2022-08-27T08:48:03;67.70;;;64.05;;
49488;SDS011;35382;51.484;11.476;2022-08-27T08:49:55;54.25;;;50.70;;
49488;SDS011;35382;51.484;11.476;2022-08-27T08:51:43;53.35;;;50.17;;
49488;SDS011;35382;51.484;11.476;2022-08-27T08:55:31;63.63;;;59.53;;
49488;SDS011;35382;51.484;11.476;2022-08-27T08:57:20;54.80;;;51.45;;
49488;SDS011;35382;51.484;11.476;2022-08-27T09:01:10;54.17;;;50.63;;
49488;SDS011;35382;51.484;11.476;2022-08-27T09:02:55;61.13;;;57.50;;
49488;SDS011;35382;51.484;11.476;2022-08-27T09:04:36;67.38;;;63.38;;
49488;SDS011;35382;51.484;11.476;2022-08-27T09:08:23;65.70;;;61.88;;
49488;SDS011;35382;51.484;11.476;2022-08-27T09:12:13;64.00;;;60.13;;
49488;SDS011;35382;51.484;11.476;2022-08-27T09:13:59;60.17;;;56.05;;
49488;SDS011;35382;51.484;11.476;2022-08-27T09:15:42;60.70;;;56.92;;
49488;SDS011;35382;51.484;11.476;2022-08-27T09:17:23;56.92;;;53.22;;
49488;SDS011;35382;51.484;11.476;2022-08-27T09:19:05;53.60;;;50.05;;
49488;SDS011;35382;51.484;11.476;2022-08-27T09:20:47;55.55;;;52.03;;
49488;SDS011;35382;51.484;11.476;2022-08-27T09:22:41;48.35;;;45.25;;
49488;SDS011;35382;51.484;11.476;2022-08-27T09:26:22;55.53;;;51.63;;
49488;SDS011;35382;51.484;11.476;2022-08-27T09:28:07;55.88;;;52.38;;
49488;SDS011;35382;51.484;11.476;2022-08-27T09:30:21;58.05;;;54.50;;
49488;SDS011;35382;51.484;11.476;2022-08-27T09:32:06;62.40;;;58.55;;
49488;SDS011;35382;51.484;11.476;2022-08-27T09:33:48;61.63;;;57.92;;
49488;SDS011;35382;51.484;11.476;2022-08-27T09:35:42;54.22;;;50.45;;
49488;SDS011;35382;51.484;11.476;2022-08-27T09:37:29;54.70;;;50.80;;
49488;SDS011;35382;51.484;11.476;2022-08-27T09:39:12;53.23;;;49.50;;
49488;SDS011;35382;51.484;11.476;2022-08-27T09:40:55;52.08;;;48.58;;
49488;SDS011;35382;51.484;11.476;2022-08-27T09:42:48;57.53;;;53.50;;
49488;SDS011;35382;51.484;11.476;2022-08-27T09:44:42;58.10;;;54.35;;
49488;SDS011;35382;51.484;11.476;2022-08-27T09:46:25;53.30;;;49.47;;
49488;SDS011;35382;51.484;11.476;2022-08-27T09:48:13;49.42;;;45.85;;
49488;SDS011;35382;51.484;11.476;2022-08-27T09:50:03;49.47;;;46.15;;
49488;SDS011;35382;51.484;11.476;2022-08-27T09:51:46;48.83;;;45.17;;
49488;SDS011;35382;51.484;11.476;2022-08-27T09:53:42;50.13;;;46.28;;
49488;SDS011;35382;51.484;11.476;2022-08-27T09:55:38;56.53;;;52.47;;
49488;SDS011;35382;51.484;11.476;2022-08-27T09:57:32;60.67;;;56.33;;
49488;SDS011;35382;51.484;11.476;2022-08-27T10:01:05;54.58;;;50.80;;
49488;SDS011;35382;51.484;11.476;2022-08-27T10:02:58;49.75;;;46.08;;
49488;SDS011;35382;51.484;11.476;2022-08-27T10:04:42;48.05;;;44.72;;
49488;SDS011;35382;51.484;11.476;2022-08-27T10:06:25;55.10;;;51.25;;
49488;SDS011;35382;51.484;11.476;2022-08-27T10:08:18;62.63;;;58.60;;
49488;SDS011;35382;51.484;11.476;2022-08-27T10:11:44;59.60;;;55.60;;